Armstrong, Illinois
Current Conditions -  °F | °C
As of 1:30 AM on Monday 22 Dec 2014 (Local Time) from KTIP Reporting Station
Haze Haze  
Wind Chill: -4°   Ceiling: 5000
Heat Index:   Visibility: 5mi
Dew Point: -1°   Wind: 9mph
Humidity: 91%   Direction: 130°SE
Pressure: 29.97"   Gusts: NA
Location:  40.31°N, 87.88°W
Report Text: KTIP 220730Z AUTO 13008KT 5SM BR BKN050 BKN080 OVC100 00/M01 A2997 RMK AO2 T00011012
Loading
Personal Weather Stations






























Interactive Weather Map New forecast layout! Learn more

10-Day Weather Forecast

Advertisements
Track Severe Weather on mobile